Time;durP1;ratioP1;P1;durP2;ratioP2;P2;SDS_P1;SDS_P2;PMS_P1;PMS_P2;Temp;Humidity;BMP_temperature;BMP_pressure;BME280_temperature;BME280_humidity;BME280_pressure;Samples;Min_cycle;Max_cycle;Signal;HPM_P1;HPM_P2
2021/12/15 00:00:42;;;;;;;31.73;24.42;;;;;;;;;;5119223;27;20110;-41
2021/12/15 00:03:08;;;;;;;27.73;23.85;;;;;;;;;;5114666;27;20026;-42
2021/12/15 00:05:34;;;;;;;28.77;21.35;;;;;;;;;;5114058;27;20489;-43
2021/12/15 00:08:01;;;;;;;25.45;21.50;;;;;;;;;;5115551;27;20085;-41
2021/12/15 00:10:26;;;;;;;23.08;19.95;;;;;;;;;;5116534;27;20024;-44
2021/12/15 00:12:52;;;;;;;26.48;23.17;;;;;;;;;;5117443;27;20023;-42
2021/12/15 00:15:19;;;;;;;26.15;18.38;;;;;;;;;;5118776;27;20080;-42
2021/12/15 00:17:44;;;;;;;33.28;19.77;;;;;;;;;;5115028;27;20012;-45
2021/12/15 00:20:12;;;;;;;26.80;20.52;;;;;;;;;;5116600;27;20047;-41
2021/12/15 00:22:38;;;;;;;28.67;20.33;;;;;;;;;;5095693;27;20475;-43
2021/12/15 00:25:04;;;;;;;31.67;22.75;;;;;;;;;;5111021;27;20019;-42
2021/12/15 00:27:29;;;;;;;22.20;19.77;;;;;;;;;;5117908;27;20049;-41
2021/12/15 00:29:55;;;;;;;27.67;19.77;;;;;;;;;;5117645;27;20456;-41
2021/12/15 00:32:20;;;;;;;22.63;16.35;;;;;;;;;;5119727;27;20640;-41
2021/12/15 00:34:46;;;;;;;28.60;18.55;;;;;;;;;;5116627;27;20115;-42
2021/12/15 00:37:11;;;;;;;36.35;18.02;;;;;;;;;;5117234;27;20460;-44
2021/12/15 00:39:37;;;;;;;19.90;16.92;;;;;;;;;;5120287;27;20027;-44
2021/12/15 00:42:03;;;;;;;38.53;18.80;;;;;;;;;;5113865;27;20064;-45
2021/12/15 00:44:28;;;;;;;25.95;17.33;;;;;;;;;;5115383;27;20023;-45
2021/12/15 00:46:53;;;;;;;26.45;17.35;;;;;;;;;;5116871;27;20031;-42
2021/12/15 00:49:20;;;;;;;22.45;15.68;;;;;;;;;;5116178;27;20084;-41
2021/12/15 00:51:45;;;;;;;19.33;16.00;;;;;;;;;;5118257;27;20064;-41
2021/12/15 00:54:11;;;;;;;23.63;18.73;;;;;;;;;;5115527;27;20019;-47
2021/12/15 00:56:37;;;;;;;23.40;20.05;;;;;;;;;;5116726;27;20024;-44
2021/12/15 00:59:07;;;;;;;19.60;16.98;;;;;;;;;;5115511;27;20055;-43
2021/12/15 01:01:34;;;;;;;27.50;18.52;;;;;;;;;;5111775;27;20524;-43
2021/12/15 01:04:00;;;;;;;28.50;20.70;;;;;;;;;;5113477;27;20211;-43
2021/12/15 01:06:26;;;;;;;32.42;24.10;;;;;;;;;;5114837;27;20110;-41
2021/12/15 01:08:56;;;;;;;27.15;18.00;;;;;;;;;;5118919;27;20019;-44
2021/12/15 01:11:45;;;;;;;28.08;19.23;;;;;;;;;;5116722;27;20586;-43
2021/12/15 01:22:17;;;;;;;12.82;9.88;;;;;;;;;;5115864;27;20038;-48
2021/12/15 01:24:42;;;;;;;14.43;9.98;;;;;;;;;;5115072;27;20046;-44
2021/12/15 01:27:07;;;;;;;15.23;9.65;;;;;;;;;;5119000;27;20728;-42
2021/12/15 01:29:33;;;;;;;8.65;6.78;;;;;;;;;;5115019;27;20487;-42
2021/12/15 01:31:58;;;;;;;10.13;7.28;;;;;;;;;;5118232;27;20031;-42
2021/12/15 01:34:23;;;;;;;9.43;5.75;;;;;;;;;;5117113;27;20042;-42
2021/12/15 01:36:49;;;;;;;10.93;6.40;;;;;;;;;;5117101;27;20069;-44
2021/12/15 01:39:14;;;;;;;12.27;9.27;;;;;;;;;;5113416;27;20031;-47
2021/12/15 01:41:39;;;;;;;10.90;7.82;;;;;;;;;;5120470;27;20038;-42
2021/12/15 01:46:56;;;;;;;16.95;9.73;;;;;;;;;;5115624;28;20012;-43
2021/12/15 01:49:22;;;;;;;18.23;11.82;;;;;;;;;;5108910;28;20031;-43
2021/12/15 01:51:47;;;;;;;11.35;9.85;;;;;;;;;;5116799;28;20585;-42
2021/12/15 01:54:13;;;;;;;6.22;3.20;;;;;;;;;;5116429;28;20031;-43
2021/12/15 01:56:38;;;;;;;3.60;3.13;;;;;;;;;;5117699;28;20372;-41
2021/12/15 01:59:04;;;;;;;8.55;4.32;;;;;;;;;;5116621;28;20427;-45
2021/12/15 02:01:30;;;;;;;11.68;7.68;;;;;;;;;;5117220;28;20091;-42
2021/12/15 02:03:56;;;;;;;15.57;7.35;;;;;;;;;;5116206;28;20084;-42
2021/12/15 02:06:21;;;;;;;19.63;5.60;;;;;;;;;;5117381;28;20026;-42
2021/12/15 02:08:48;;;;;;;12.70;7.57;;;;;;;;;;5117682;28;20608;-45
2021/12/15 02:11:40;;;;;;;18.45;6.95;;;;;;;;;;5115375;28;20024;-48
2021/12/15 02:14:11;;;;;;;17.42;8.75;;;;;;;;;;5108130;28;20028;-44
2021/12/15 02:16:36;;;;;;;15.52;9.40;;;;;;;;;;5113560;28;20027;-46
2021/12/15 02:19:02;;;;;;;16.38;8.07;;;;;;;;;;5117751;28;20084;-42
2021/12/15 02:21:27;;;;;;;19.63;6.70;;;;;;;;;;5115821;28;20020;-48
2021/12/15 02:23:55;;;;;;;11.52;7.55;;;;;;;;;;5117745;28;20022;-49
2021/12/15 02:26:34;;;;;;;7.30;5.55;;;;;;;;;;5116814;28;20023;-44
2021/12/15 02:29:01;;;;;;;9.57;4.32;;;;;;;;;;5116972;28;20030;-41
2021/12/15 02:31:54;;;;;;;5.38;3.03;;;;;;;;;;5116492;28;20023;-46
2021/12/15 02:37:16;;;;;;;5.55;3.00;;;;;;;;;;5113510;28;20019;-43
2021/12/15 02:39:45;;;;;;;4.72;2.63;;;;;;;;;;5116126;28;20044;-46
2021/12/15 02:42:10;;;;;;;4.93;2.63;;;;;;;;;;5115294;28;20046;-41
2021/12/15 02:44:41;;;;;;;5.25;2.35;;;;;;;;;;5114087;28;20051;-43
2021/12/15 02:47:07;;;;;;;5.17;2.63;;;;;;;;;;5119126;28;20015;-44
2021/12/15 02:49:32;;;;;;;11.63;8.98;;;;;;;;;;5118321;27;20271;-43
2021/12/15 02:51:59;;;;;;;13.40;8.57;;;;;;;;;;5120029;27;20031;-50
2021/12/15 02:54:24;;;;;;;7.22;4.80;;;;;;;;;;5120165;27;20034;-43
2021/12/15 02:56:52;;;;;;;6.53;3.55;;;;;;;;;;5119633;27;20031;-44
2021/12/15 02:59:30;;;;;;;8.63;3.42;;;;;;;;;;5116479;27;20032;-42
2021/12/15 03:02:16;;;;;;;10.80;5.65;;;;;;;;;;5117083;27;20015;-41
2021/12/15 03:04:48;;;;;;;9.00;5.20;;;;;;;;;;5120791;27;20065;-43
2021/12/15 03:07:29;;;;;;;9.07;4.25;;;;;;;;;;5121715;27;20035;-42
2021/12/15 03:18:08;;;;;;;19.27;11.60;;;;;;;;;;5117188;27;20069;-42
2021/12/15 03:20:39;;;;;;;16.70;9.25;;;;;;;;;;5120364;27;20046;-42
2021/12/15 03:23:06;;;;;;;16.80;7.30;;;;;;;;;;5120745;27;20054;-41
2021/12/15 03:25:31;;;;;;;8.95;4.93;;;;;;;;;;5123526;27;20058;-42
2021/12/15 03:33:37;;;;;;;4.03;2.65;;;;;;;;;;5120288;27;20648;-42
2021/12/15 03:36:08;;;;;;;11.85;3.63;;;;;;;;;;5117217;27;20790;-42
2021/12/15 03:38:34;;;;;;;6.05;3.55;;;;;;;;;;5116003;27;20491;-41
2021/12/15 03:41:01;;;;;;;19.25;5.38;;;;;;;;;;5119058;27;20075;-43
2021/12/15 03:43:26;;;;;;;5.15;4.07;;;;;;;;;;5116730;27;20019;-46
2021/12/15 03:45:55;;;;;;;7.10;4.88;;;;;;;;;;5118174;27;20020;-43
2021/12/15 03:48:21;;;;;;;14.18;7.22;;;;;;;;;;5115968;27;20028;-42
2021/12/15 03:50:47;;;;;;;17.38;7.78;;;;;;;;;;5119191;27;20510;-42
2021/12/15 03:53:13;;;;;;;12.27;6.22;;;;;;;;;;5117484;27;20007;-42
2021/12/15 03:55:39;;;;;;;8.50;4.43;;;;;;;;;;5117530;27;20101;-43
2021/12/15 03:58:08;;;;;;;9.43;3.78;;;;;;;;;;5115922;27;20015;-41
2021/12/15 04:00:34;;;;;;;12.68;5.22;;;;;;;;;;5113776;27;20026;-43
2021/12/15 04:02:59;;;;;;;9.88;5.38;;;;;;;;;;5115129;27;20016;-42
2021/12/15 04:05:25;;;;;;;12.02;7.32;;;;;;;;;;5115965;27;20019;-42
2021/12/15 04:07:51;;;;;;;17.60;8.68;;;;;;;;;;5117850;27;20031;-42
2021/12/15 04:10:20;;;;;;;18.33;12.40;;;;;;;;;;5117797;27;20700;-44
2021/12/15 04:12:45;;;;;;;17.92;13.07;;;;;;;;;;5117782;27;20023;-43
2021/12/15 04:15:55;;;;;;;21.77;14.23;;;;;;;;;;5114006;27;20031;-41
2021/12/15 04:18:03;;;;;;;26.83;18.48;;;;;;;;;;5114291;27;20031;-41
2021/12/15 04:20:33;;;;;;;25.65;15.23;;;;;;;;;;5117711;27;20048;-44
2021/12/15 04:22:59;;;;;;;21.90;15.65;;;;;;;;;;5112837;27;20034;-42
2021/12/15 04:25:26;;;;;;;23.60;16.48;;;;;;;;;;5116305;27;20019;-42
2021/12/15 04:27:55;;;;;;;28.95;17.25;;;;;;;;;;5101079;27;20019;-42
2021/12/15 04:30:21;;;;;;;21.52;13.88;;;;;;;;;;5120625;27;20045;-41
2021/12/15 04:32:48;;;;;;;22.25;15.82;;;;;;;;;;5118601;27;20468;-42
2021/12/15 04:35:14;;;;;;;23.33;14.90;;;;;;;;;;5116767;27;20103;-42
2021/12/15 04:37:41;;;;;;;17.05;13.32;;;;;;;;;;5120360;27;20012;-41
2021/12/15 04:40:08;;;;;;;15.38;13.00;;;;;;;;;;5114787;27;20038;-44
2021/12/15 04:42:33;;;;;;;20.50;11.60;;;;;;;;;;5116263;27;20022;-43
2021/12/15 04:44:59;;;;;;;16.13;12.32;;;;;;;;;;5115529;27;20019;-42
2021/12/15 04:47:25;;;;;;;28.90;13.57;;;;;;;;;;5114846;27;20464;-43
2021/12/15 04:49:51;;;;;;;16.10;9.80;;;;;;;;;;5116565;27;20479;-44
2021/12/15 04:52:18;;;;;;;17.70;11.35;;;;;;;;;;5114600;27;20032;-43
2021/12/15 04:54:44;;;;;;;24.85;13.93;;;;;;;;;;5116802;27;20019;-44
2021/12/15 04:57:10;;;;;;;15.90;13.45;;;;;;;;;;5115787;27;20015;-43
2021/12/15 04:59:36;;;;;;;18.45;11.32;;;;;;;;;;5119087;27;20020;-47
2021/12/15 05:02:02;;;;;;;14.30;9.02;;;;;;;;;;5115720;27;20051;-45
2021/12/15 05:04:27;;;;;;;11.60;8.55;;;;;;;;;;5113160;27;20022;-43
2021/12/15 05:06:53;;;;;;;15.40;7.82;;;;;;;;;;5116540;27;20015;-42
2021/12/15 05:09:18;;;;;;;15.70;8.02;;;;;;;;;;5116552;27;20039;-43
2021/12/15 05:11:47;;;;;;;10.75;7.25;;;;;;;;;;5116877;27;20469;-43
2021/12/15 05:14:12;;;;;;;8.38;6.53;;;;;;;;;;5113001;27;20016;-42
2021/12/15 05:16:38;;;;;;;6.82;4.63;;;;;;;;;;5116235;27;20033;-44
2021/12/15 05:19:03;;;;;;;13.30;7.15;;;;;;;;;;5113168;27;20088;-41
2021/12/15 05:21:30;;;;;;;6.45;3.60;;;;;;;;;;5117072;27;20043;-43
2021/12/15 05:23:56;;;;;;;4.00;2.63;;;;;;;;;;5117481;27;20024;-47
2021/12/15 05:26:22;;;;;;;6.15;1.80;;;;;;;;;;5122592;27;20030;-42
2021/12/15 05:28:48;;;;;;;8.55;1.75;;;;;;;;;;5119470;27;20019;-44
2021/12/15 05:31:13;;;;;;;6.22;1.92;;;;;;;;;;5113953;27;20946;-43
2021/12/15 05:33:38;;;;;;;4.03;3.65;;;;;;;;;;5115110;27;20027;-44
2021/12/15 05:36:04;;;;;;;12.05;3.72;;;;;;;;;;5114375;27;20027;-42
2021/12/15 05:38:29;;;;;;;11.13;5.20;;;;;;;;;;5118230;27;20012;-42
2021/12/15 05:40:57;;;;;;;7.20;4.47;;;;;;;;;;5116959;27;20061;-48
2021/12/15 05:43:23;;;;;;;6.95;4.43;;;;;;;;;;5113882;27;20279;-44
2021/12/15 05:45:50;;;;;;;4.70;2.78;;;;;;;;;;5113185;27;20547;-42
2021/12/15 05:48:16;;;;;;;7.85;3.03;;;;;;;;;;5114231;28;20023;-45
2021/12/15 05:50:42;;;;;;;6.50;3.28;;;;;;;;;;5114792;28;20042;-43
2021/12/15 05:53:08;;;;;;;11.90;10.73;;;;;;;;;;5114223;28;20497;-43
2021/12/15 05:55:34;;;;;;;4.70;3.78;;;;;;;;;;5118172;28;20059;-43
2021/12/15 05:58:00;;;;;;;7.72;3.92;;;;;;;;;;5117966;28;20131;-44
2021/12/15 06:00:27;;;;;;;4.05;3.22;;;;;;;;;;5115257;28;20133;-47
2021/12/15 06:02:53;;;;;;;5.60;3.03;;;;;;;;;;5116295;28;20019;-42
2021/12/15 06:05:18;;;;;;;3.60;2.08;;;;;;;;;;5114322;28;20025;-44
2021/12/15 06:07:44;;;;;;;6.25;2.85;;;;;;;;;;5113097;28;20042;-45
2021/12/15 06:10:11;;;;;;;8.32;3.20;;;;;;;;;;5117292;28;20115;-44
2021/12/15 06:12:36;;;;;;;6.47;2.70;;;;;;;;;;5115273;28;20022;-41
2021/12/15 06:15:03;;;;;;;11.60;4.43;;;;;;;;;;5114878;28;20086;-41
2021/12/15 06:17:28;;;;;;;9.32;5.30;;;;;;;;;;5113354;28;20588;-43
2021/12/15 06:19:54;;;;;;;10.10;9.00;;;;;;;;;;5109361;28;20077;-45
2021/12/15 06:22:24;;;;;;;12.45;8.48;;;;;;;;;;5115888;27;20703;-45
2021/12/15 06:24:50;;;;;;;13.73;7.00;;;;;;;;;;5117742;27;20027;-41
2021/12/15 06:27:18;;;;;;;5.40;4.60;;;;;;;;;;5104537;27;20023;-41
2021/12/15 06:29:44;;;;;;;11.57;6.35;;;;;;;;;;5120973;27;20110;-42
2021/12/15 06:32:10;;;;;;;8.25;6.18;;;;;;;;;;5122238;27;20024;-41
2021/12/15 06:34:35;;;;;;;13.55;7.65;;;;;;;;;;5120216;27;20050;-41
2021/12/15 06:37:00;;;;;;;7.18;5.30;;;;;;;;;;5119526;27;20520;-41
2021/12/15 06:39:26;;;;;;;11.98;6.63;;;;;;;;;;5118981;27;20031;-44
2021/12/15 06:41:51;;;;;;;13.75;8.15;;;;;;;;;;5101231;27;20079;-46
2021/12/15 06:44:16;;;;;;;10.52;5.30;;;;;;;;;;5113984;27;20027;-42
2021/12/15 07:00:11;;;;;;;81.63;54.97;;;;;;;;;;5121935;27;20023;-43
2021/12/15 07:02:38;;;;;;;60.65;38.35;;;;;;;;;;5120739;27;20015;-41
2021/12/15 07:05:04;;;;;;;33.53;21.00;;;;;;;;;;5117979;27;20027;-43
2021/12/15 07:07:29;;;;;;;23.17;16.63;;;;;;;;;;5118327;27;20024;-42
2021/12/15 07:09:54;;;;;;;18.85;14.32;;;;;;;;;;5119165;27;20536;-41
2021/12/15 07:12:20;;;;;;;14.05;12.55;;;;;;;;;;5121709;27;20020;-41
2021/12/15 07:14:45;;;;;;;16.67;14.95;;;;;;;;;;5114785;27;20039;-40
2021/12/15 07:17:18;;;;;;;31.02;19.92;;;;;;;;;;5115784;27;20131;-44
2021/12/15 07:20:04;;;;;;;20.38;15.40;;;;;;;;;;5117983;27;20059;-44
2021/12/15 07:22:33;;;;;;;24.15;20.27;;;;;;;;;;5117947;27;20375;-44
2021/12/15 07:25:00;;;;;;;15.75;11.95;;;;;;;;;;5118318;27;20088;-44
2021/12/15 07:27:25;;;;;;;16.58;12.60;;;;;;;;;;5117049;27;20058;-42
2021/12/15 07:29:51;;;;;;;17.95;13.70;;;;;;;;;;5117356;27;20784;-41
2021/12/15 07:32:16;;;;;;;19.83;13.50;;;;;;;;;;5118024;27;20016;-42
2021/12/15 07:34:41;;;;;;;22.02;12.95;;;;;;;;;;5112882;27;20004;-46
2021/12/15 07:37:07;;;;;;;11.35;9.50;;;;;;;;;;5117044;27;20043;-42
2021/12/15 07:39:34;;;;;;;21.23;11.88;;;;;;;;;;5118007;27;20058;-42
2021/12/15 07:42:09;;;;;;;9.07;7.43;;;;;;;;;;5120546;27;20023;-41
2021/12/15 07:44:35;;;;;;;7.63;6.93;;;;;;;;;;5120623;27;20021;-44
2021/12/15 07:47:00;;;;;;;25.15;16.73;;;;;;;;;;5113781;27;20024;-41
2021/12/15 07:49:26;;;;;;;16.13;14.02;;;;;;;;;;5116506;27;20026;-41
2021/12/15 07:52:04;;;;;;;17.48;14.57;;;;;;;;;;5119706;27;20074;-42
2021/12/15 07:54:32;;;;;;;18.23;14.50;;;;;;;;;;5116190;27;20054;-40
2021/12/15 07:57:00;;;;;;;24.83;16.13;;;;;;;;;;5116255;27;20015;-42
2021/12/15 07:59:26;;;;;;;24.75;16.48;;;;;;;;;;5114610;27;20383;-41
2021/12/15 08:01:51;;;;;;;24.20;19.90;;;;;;;;;;5117879;27;20011;-41
2021/12/15 08:04:18;;;;;;;28.02;18.20;;;;;;;;;;5117354;27;20075;-43
2021/12/15 08:06:45;;;;;;;23.10;17.95;;;;;;;;;;5118090;27;20088;-46
2021/12/15 08:09:11;;;;;;;28.60;18.02;;;;;;;;;;5116800;27;20499;-45
2021/12/15 08:11:36;;;;;;;18.95;16.95;;;;;;;;;;5117210;27;20019;-42
2021/12/15 08:14:01;;;;;;;19.30;16.52;;;;;;;;;;5119152;27;20376;-44
2021/12/15 08:16:27;;;;;;;24.77;19.08;;;;;;;;;;5118877;27;20096;-49
2021/12/15 08:18:52;;;;;;;41.30;24.42;;;;;;;;;;5115955;27;20035;-44
2021/12/15 08:21:18;;;;;;;42.13;31.70;;;;;;;;;;5116864;27;20083;-42
2021/12/15 08:23:43;;;;;;;33.20;28.45;;;;;;;;;;5114602;27;20456;-40
2021/12/15 08:26:09;;;;;;;44.35;31.42;;;;;;;;;;5119327;27;20760;-42
2021/12/15 08:28:34;;;;;;;57.88;43.90;;;;;;;;;;5116386;27;20453;-39
2021/12/15 08:31:00;;;;;;;54.80;40.60;;;;;;;;;;5119427;27;20027;-41
2021/12/15 08:33:26;;;;;;;53.28;47.15;;;;;;;;;;5118858;27;20468;-42
2021/12/15 08:35:56;;;;;;;55.08;43.17;;;;;;;;;;5117362;27;20012;-43
2021/12/15 08:38:22;;;;;;;61.50;42.10;;;;;;;;;;5112247;27;20053;-36
2021/12/15 08:40:47;;;;;;;51.28;42.05;;;;;;;;;;5116614;27;20015;-36
2021/12/15 08:43:14;;;;;;;32.10;27.05;;;;;;;;;;5115160;27;20080;-35
2021/12/15 08:45:40;;;;;;;24.60;21.92;;;;;;;;;;5114636;27;20019;-36
2021/12/15 08:48:07;;;;;;;27.52;24.35;;;;;;;;;;5116757;27;20126;-41
2021/12/15 08:50:33;;;;;;;33.90;30.35;;;;;;;;;;5122573;27;20144;-41
2021/12/15 08:53:00;;;;;;;40.75;33.88;;;;;;;;;;5115381;27;20019;-43
2021/12/15 08:55:26;;;;;;;42.38;35.08;;;;;;;;;;5115987;27;20472;-45
2021/12/15 08:57:54;;;;;;;52.00;35.35;;;;;;;;;;5117248;27;20168;-43
2021/12/15 09:00:20;;;;;;;47.33;38.85;;;;;;;;;;5117150;27;20554;-40
2021/12/15 09:02:46;;;;;;;51.67;46.20;;;;;;;;;;5114308;27;20012;-40
2021/12/15 09:05:12;;;;;;;39.60;35.65;;;;;;;;;;5114892;27;20026;-42
2021/12/15 09:07:37;;;;;;;42.53;38.00;;;;;;;;;;5115128;27;20407;-43
2021/12/15 09:10:03;;;;;;;40.53;28.60;;;;;;;;;;5118405;27;20023;-41
2021/12/15 09:12:29;;;;;;;25.45;22.73;;;;;;;;;;5122446;27;20019;-43
2021/12/15 09:14:54;;;;;;;29.50;26.20;;;;;;;;;;5113860;27;20038;-43
2021/12/15 09:17:20;;;;;;;29.58;26.00;;;;;;;;;;5112698;27;20114;-42
2021/12/15 09:19:45;;;;;;;38.90;30.90;;;;;;;;;;5116231;27;20078;-42
2021/12/15 09:22:10;;;;;;;39.40;28.52;;;;;;;;;;5117357;27;20547;-44
2021/12/15 09:24:36;;;;;;;33.42;24.95;;;;;;;;;;5107806;27;20019;-42
2021/12/15 09:27:01;;;;;;;36.03;32.45;;;;;;;;;;5115863;27;20031;-42
2021/12/15 09:29:27;;;;;;;41.58;36.63;;;;;;;;;;5117569;27;20023;-42
2021/12/15 09:31:53;;;;;;;46.53;36.35;;;;;;;;;;5117606;27;20468;-43
2021/12/15 09:34:18;;;;;;;48.10;39.72;;;;;;;;;;5115500;27;20027;-42
2021/12/15 09:36:48;;;;;;;44.83;36.25;;;;;;;;;;5117889;27;20019;-42
2021/12/15 09:39:16;;;;;;;36.90;32.53;;;;;;;;;;5116771;27;20020;-37
2021/12/15 09:41:45;;;;;;;46.20;30.67;;;;;;;;;;5114803;28;20027;-40
2021/12/15 09:44:14;;;;;;;39.53;34.25;;;;;;;;;;5114292;27;20049;-45
2021/12/15 09:47:07;;;;;;;54.83;46.45;;;;;;;;;;5118679;27;20859;-46
2021/12/15 10:03:14;;;;;;;92.70;82.70;;;;;;;;;;5122384;27;20125;-41
2021/12/15 10:06:30;;;;;;;59.35;51.53;;;;;;;;;;5118546;27;20016;-39
2021/12/15 10:19:20;;;;;;;53.47;42.60;;;;;;;;;;5112444;27;20059;-43
2021/12/15 10:22:01;;;;;;;46.17;33.95;;;;;;;;;;5116612;27;20088;-41
2021/12/15 10:24:31;;;;;;;39.10;33.72;;;;;;;;;;5118857;27;20024;-45
2021/12/15 10:27:01;;;;;;;38.30;27.10;;;;;;;;;;5114873;27;20385;-42
2021/12/15 10:29:27;;;;;;;32.35;28.20;;;;;;;;;;5113000;27;20038;-43
2021/12/15 10:32:00;;;;;;;30.95;18.80;;;;;;;;;;5116597;27;20101;-41
2021/12/15 10:34:25;;;;;;;58.33;17.10;;;;;;;;;;5115126;27;20075;-42
2021/12/15 10:36:51;;;;;;;58.63;26.13;;;;;;;;;;5118149;27;20110;-43
2021/12/15 10:39:16;;;;;;;18.75;11.88;;;;;;;;;;5116105;27;20051;-42
2021/12/15 10:41:43;;;;;;;20.00;11.18;;;;;;;;;;5116805;27;20102;-42
2021/12/15 10:44:13;;;;;;;15.13;13.32;;;;;;;;;;5113827;27;20055;-43
2021/12/15 10:46:46;;;;;;;13.32;10.63;;;;;;;;;;5117257;27;20030;-42
2021/12/15 10:49:14;;;;;;;11.93;9.82;;;;;;;;;;5112114;27;20590;-41
2021/12/15 10:51:44;;;;;;;11.07;8.75;;;;;;;;;;5118015;27;20027;-41
2021/12/15 10:54:12;;;;;;;15.35;11.75;;;;;;;;;;5111799;27;20488;-42
2021/12/15 10:56:40;;;;;;;10.82;8.13;;;;;;;;;;5117005;27;20028;-44
2021/12/15 10:59:07;;;;;;;8.10;6.95;;;;;;;;;;5116461;27;20031;-44
2021/12/15 11:01:35;;;;;;;14.32;8.75;;;;;;;;;;5115903;27;20016;-41
2021/12/15 11:04:02;;;;;;;18.48;6.43;;;;;;;;;;5120338;27;20030;-43
2021/12/15 11:06:32;;;;;;;10.88;6.53;;;;;;;;;;5117541;27;20106;-45
2021/12/15 11:09:16;;;;;;;20.58;8.85;;;;;;;;;;5114864;27;20027;-44
2021/12/15 11:11:58;;;;;;;8.75;7.55;;;;;;;;;;5115451;27;20035;-42
2021/12/15 11:14:29;;;;;;;11.32;9.30;;;;;;;;;;5111690;27;20011;-44
2021/12/15 11:17:21;;;;;;;14.85;10.30;;;;;;;;;;5113188;27;20100;-44
2021/12/15 11:19:54;;;;;;;20.70;11.63;;;;;;;;;;5105985;27;20051;-42
2021/12/15 11:22:30;;;;;;;10.88;8.18;;;;;;;;;;5111320;27;20028;-44
2021/12/15 11:24:56;;;;;;;12.95;7.85;;;;;;;;;;5115642;27;20023;-42
2021/12/15 11:27:22;;;;;;;20.42;9.98;;;;;;;;;;5116493;27;20025;-44
2021/12/15 11:29:47;;;;;;;13.98;8.57;;;;;;;;;;5114695;27;20484;-46
2021/12/15 11:32:31;;;;;;;11.75;9.02;;;;;;;;;;5116710;27;20055;-45
2021/12/15 11:35:07;;;;;;;12.55;11.00;;;;;;;;;;5113108;27;20507;-47
2021/12/15 11:37:46;;;;;;;13.18;10.32;;;;;;;;;;5113984;27;20084;-42
2021/12/15 11:40:11;;;;;;;14.65;10.75;;;;;;;;;;5115807;27;20034;-43
2021/12/15 11:42:40;;;;;;;13.57;9.85;;;;;;;;;;5111153;27;20031;-42
2021/12/15 11:45:07;;;;;;;12.48;10.43;;;;;;;;;;5113813;27;20032;-43
2021/12/15 11:47:33;;;;;;;9.90;8.40;;;;;;;;;;5117784;27;20015;-43
2021/12/15 11:50:05;;;;;;;16.08;12.20;;;;;;;;;;5114400;27;20027;-43
2021/12/15 11:52:36;;;;;;;23.95;11.88;;;;;;;;;;5117477;27;20868;-43
2021/12/15 11:55:02;;;;;;;17.33;13.02;;;;;;;;;;5112873;27;20483;-42
2021/12/15 11:57:28;;;;;;;30.02;19.63;;;;;;;;;;5113820;27;20083;-41
2021/12/15 11:59:55;;;;;;;22.05;19.58;;;;;;;;;;5117160;27;20011;-45
2021/12/15 12:02:25;;;;;;;19.05;15.88;;;;;;;;;;5111727;27;20015;-43
2021/12/15 12:04:52;;;;;;;21.27;17.10;;;;;;;;;;5114445;27;20026;-46
2021/12/15 12:07:20;;;;;;;16.30;12.63;;;;;;;;;;5111696;27;20121;-43
2021/12/15 12:09:47;;;;;;;17.33;13.85;;;;;;;;;;5116975;27;20023;-42
2021/12/15 12:12:13;;;;;;;45.53;40.58;;;;;;;;;;5115819;27;20683;-45
2021/12/15 12:14:49;;;;;;;55.38;45.00;;;;;;;;;;5112636;27;20055;-45
2021/12/15 12:17:21;;;;;;;25.50;19.48;;;;;;;;;;5115033;27;20114;-41
2021/12/15 12:19:49;;;;;;;14.23;10.77;;;;;;;;;;5111132;27;20087;-43
2021/12/15 12:22:15;;;;;;;21.10;10.13;;;;;;;;;;5114843;27;20265;-43
2021/12/15 12:24:42;;;;;;;8.32;7.53;;;;;;;;;;5114455;27;20041;-44
2021/12/15 12:27:08;;;;;;;10.73;9.18;;;;;;;;;;5113293;27;20096;-47
2021/12/15 12:29:34;;;;;;;13.82;8.05;;;;;;;;;;5116820;27;20073;-42
2021/12/15 12:31:59;;;;;;;10.32;7.85;;;;;;;;;;5112891;27;20023;-42
2021/12/15 12:34:24;;;;;;;15.45;10.98;;;;;;;;;;5115994;27;20019;-41
2021/12/15 12:36:50;;;;;;;12.73;11.02;;;;;;;;;;5111654;27;20023;-45
2021/12/15 12:39:21;;;;;;;11.23;9.77;;;;;;;;;;5119213;27;20049;-41
2021/12/15 12:41:49;;;;;;;18.52;15.32;;;;;;;;;;5114358;27;20023;-42
2021/12/15 12:44:14;;;;;;;12.77;10.73;;;;;;;;;;5114645;27;20035;-41
2021/12/15 12:46:50;;;;;;;12.70;11.40;;;;;;;;;;5112663;27;20095;-42
2021/12/15 12:59:59;;;;;;;10.43;8.13;;;;;;;;;;5113976;27;20038;-44
2021/12/15 13:02:24;;;;;;;13.85;10.93;;;;;;;;;;5113561;27;20015;-42
2021/12/15 13:04:49;;;;;;;45.80;11.48;;;;;;;;;;5112393;27;20035;-42
2021/12/15 13:07:15;;;;;;;29.85;14.48;;;;;;;;;;5111851;27;20054;-44
2021/12/15 13:09:50;;;;;;;17.70;6.15;;;;;;;;;;5114808;27;20084;-42
2021/12/15 13:12:20;;;;;;;15.40;8.60;;;;;;;;;;5110969;27;20020;-44
2021/12/15 13:14:46;;;;;;;7.80;5.65;;;;;;;;;;5110064;27;20476;-41
2021/12/15 13:17:19;;;;;;;6.80;6.15;;;;;;;;;;5112681;27;20039;-41
2021/12/15 13:19:44;;;;;;;10.15;6.72;;;;;;;;;;5114412;27;20059;-44
2021/12/15 13:22:32;;;;;;;10.77;8.32;;;;;;;;;;5113208;27;20015;-41
2021/12/15 13:30:48;;;;;;;7.70;6.38;;;;;;;;;;5111789;27;20034;-40
2021/12/15 13:33:32;;;;;;;8.95;7.70;;;;;;;;;;5115650;27;20019;-40
2021/12/15 13:35:58;;;;;;;13.55;6.65;;;;;;;;;;5111185;27;20071;-43
2021/12/15 13:38:35;;;;;;;10.05;5.30;;;;;;;;;;5114365;27;20421;-43
2021/12/15 13:41:21;;;;;;;8.77;6.68;;;;;;;;;;5114851;27;20106;-42
2021/12/15 13:43:49;;;;;;;8.63;7.32;;;;;;;;;;5113137;27;20035;-39
2021/12/15 13:46:30;;;;;;;14.38;8.70;;;;;;;;;;5110403;27;20027;-41
2021/12/15 13:49:04;;;;;;;5.47;4.78;;;;;;;;;;5110970;27;20106;-39
2021/12/15 13:51:49;;;;;;;15.23;8.52;;;;;;;;;;5107296;28;20057;-39
2021/12/15 13:54:40;;;;;;;11.05;7.50;;;;;;;;;;5115403;28;20019;-43
2021/12/15 13:57:12;;;;;;;13.60;8.68;;;;;;;;;;5107077;28;20034;-40
2021/12/15 14:00:04;;;;;;;21.30;7.50;;;;;;;;;;5111739;28;20427;-40
2021/12/15 14:02:29;;;;;;;7.00;5.55;;;;;;;;;;5109523;28;20027;-39
2021/12/15 14:05:12;;;;;;;9.82;8.43;;;;;;;;;;5111896;28;20613;-40
2021/12/15 14:07:38;;;;;;;20.58;9.40;;;;;;;;;;5109809;28;20125;-40
2021/12/15 14:10:04;;;;;;;12.45;9.52;;;;;;;;;;5109768;28;20029;-40
2021/12/15 14:12:44;;;;;;;16.23;8.38;;;;;;;;;;5113782;28;20028;-40
2021/12/15 14:15:10;;;;;;;15.07;8.85;;;;;;;;;;5112167;28;20151;-41
2021/12/15 14:17:35;;;;;;;18.73;10.45;;;;;;;;;;5111742;28;20605;-39
2021/12/15 14:20:01;;;;;;;12.35;10.85;;;;;;;;;;5114530;27;20047;-40
2021/12/15 14:22:26;;;;;;;11.20;10.18;;;;;;;;;;5101334;28;20064;-42
2021/12/15 14:24:54;;;;;;;12.27;10.30;;;;;;;;;;5118179;28;20043;-40
2021/12/15 14:27:21;;;;;;;12.75;8.90;;;;;;;;;;5112825;28;20015;-39
2021/12/15 14:29:47;;;;;;;15.25;10.45;;;;;;;;;;5114724;28;20020;-40
2021/12/15 14:32:13;;;;;;;12.60;9.90;;;;;;;;;;5116051;28;20582;-43
2021/12/15 14:34:39;;;;;;;17.38;9.55;;;;;;;;;;5115275;28;20485;-43
2021/12/15 14:37:07;;;;;;;20.98;10.52;;;;;;;;;;5112897;28;20021;-41
2021/12/15 14:39:35;;;;;;;22.08;10.40;;;;;;;;;;5113896;28;20030;-40
2021/12/15 14:42:21;;;;;;;11.65;10.52;;;;;;;;;;5116948;28;20019;-40
2021/12/15 14:44:50;;;;;;;14.70;10.25;;;;;;;;;;5097190;27;20065;-42
2021/12/15 14:47:18;;;;;;;12.25;8.85;;;;;;;;;;5116843;27;20027;-42
2021/12/15 14:50:03;;;;;;;9.07;8.20;;;;;;;;;;5120781;27;20185;-41
2021/12/15 14:52:37;;;;;;;19.77;17.73;;;;;;;;;;5118495;27;20015;-42
2021/12/15 14:55:07;;;;;;;27.08;19.48;;;;;;;;;;5116327;27;20137;-44
2021/12/15 14:57:36;;;;;;;16.50;11.10;;;;;;;;;;5118486;27;20067;-41
2021/12/15 15:00:12;;;;;;;21.40;16.60;;;;;;;;;;5120050;27;20242;-40
2021/12/15 15:02:40;;;;;;;14.80;13.32;;;;;;;;;;5114308;27;20022;-39
2021/12/15 15:05:06;;;;;;;19.25;16.88;;;;;;;;;;5118809;27;20028;-39
2021/12/15 15:07:34;;;;;;;21.77;15.82;;;;;;;;;;5114827;27;20552;-43
2021/12/15 15:10:01;;;;;;;23.88;18.52;;;;;;;;;;5114566;27;20495;-42
2021/12/15 15:12:33;;;;;;;20.17;18.08;;;;;;;;;;5115216;27;20861;-41
2021/12/15 15:15:00;;;;;;;22.88;20.65;;;;;;;;;;5113148;27;20016;-39
2021/12/15 15:17:30;;;;;;;14.18;12.85;;;;;;;;;;5114735;27;20024;-39
2021/12/15 15:20:12;;;;;;;14.50;13.00;;;;;;;;;;5113961;27;20113;-39
2021/12/15 15:22:37;;;;;;;18.23;16.35;;;;;;;;;;5114872;27;20732;-39
2021/12/15 15:25:04;;;;;;;24.98;12.75;;;;;;;;;;5115358;27;20015;-42
2021/12/15 15:27:29;;;;;;;20.55;18.50;;;;;;;;;;5116817;27;20066;-39
2021/12/15 15:30:02;;;;;;;15.55;14.05;;;;;;;;;;5114318;27;20063;-41
2021/12/15 15:32:29;;;;;;;24.77;21.92;;;;;;;;;;5112120;27;20039;-44
2021/12/15 15:35:00;;;;;;;20.95;15.60;;;;;;;;;;5094541;27;20022;-40
2021/12/15 15:37:25;;;;;;;19.90;14.23;;;;;;;;;;5115828;27;20027;-39
2021/12/15 15:40:19;;;;;;;19.05;15.75;;;;;;;;;;5115735;27;20512;-40
2021/12/15 15:42:46;;;;;;;17.65;15.95;;;;;;;;;;5091978;27;20031;-40
2021/12/15 15:45:20;;;;;;;14.57;13.07;;;;;;;;;;5117461;27;20034;-42
2021/12/15 15:47:46;;;;;;;27.65;24.23;;;;;;;;;;5117378;27;20027;-40
2021/12/15 15:50:11;;;;;;;34.33;22.67;;;;;;;;;;5115701;27;20042;-42
2021/12/15 15:52:56;;;;;;;14.63;13.27;;;;;;;;;;5117465;27;20047;-39
2021/12/15 15:55:22;;;;;;;16.88;12.93;;;;;;;;;;5111392;27;20027;-42